createdAt,value
2022-08-20T00:02:10.313Z,94019.56
2022-08-20T00:04:37.165Z,94021.47
2022-08-20T00:07:06.472Z,94019.13
2022-08-20T00:09:36.722Z,94020.22
2022-08-20T00:12:05.553Z,94019.13
2022-08-20T00:14:33.907Z,94015.69
2022-08-20T00:17:01.752Z,94019.34
2022-08-20T00:19:29.093Z,94023.09
2022-08-20T00:21:56.474Z,94005.09
2022-08-20T00:24:24.892Z,94019.31
2022-08-20T00:26:51.975Z,94030.03
2022-08-20T00:29:20.266Z,94027.81
2022-08-20T00:31:47.310Z,94026.56
2022-08-20T00:34:14.304Z,94017.97
2022-08-20T00:36:41.076Z,94020.88
2022-08-20T00:39:07.789Z,94024.13
2022-08-20T00:41:34.445Z,94021.53
2022-08-20T00:44:11.548Z,94022.41
2022-08-20T00:46:39.744Z,94020.66
2022-08-20T00:49:17.595Z,94022.97
2022-08-20T00:51:53.280Z,94026.91
2022-08-20T00:54:37.403Z,94021.69
2022-08-20T00:57:24.761Z,94023.41
2022-08-20T00:59:52.794Z,94032.91
2022-08-20T01:02:23.025Z,94035.22
2022-08-20T01:04:54.642Z,94032.91
2022-08-20T01:07:32.161Z,94034.22
2022-08-20T01:10:00.470Z,94030.09
2022-08-20T01:12:29.692Z,94027.00
2022-08-20T01:15:00.402Z,94023.22
2022-08-20T01:17:29.866Z,94027.50
2022-08-20T01:20:15.937Z,94021.66
2022-08-20T01:23:04.152Z,94027.16
2022-08-20T01:25:41.477Z,94034.25
2022-08-20T01:28:09.836Z,94037.25
2022-08-20T01:30:37.786Z,94039.31
2022-08-20T01:33:06.003Z,94042.44
2022-08-20T01:35:40.865Z,94050.00
2022-08-20T01:38:08.566Z,94051.91
2022-08-20T01:40:56.904Z,94051.50
2022-08-20T01:43:24.191Z,94059.66
2022-08-20T01:45:52.917Z,94058.22
2022-08-20T01:48:20.631Z,94053.78
2022-08-20T01:50:55.587Z,94064.13
2022-08-20T01:53:30.189Z,94067.22
2022-08-20T01:55:56.940Z,94074.31
2022-08-20T01:58:23.618Z,94061.47
2022-08-20T02:00:50.500Z,94060.69
2022-08-20T02:03:17.203Z,94060.69
2022-08-20T02:05:44.022Z,94070.25
2022-08-20T02:08:10.717Z,94067.91
2022-08-20T02:10:37.393Z,94060.78
2022-08-20T02:13:05.704Z,94072.75
2022-08-20T02:15:37.473Z,94068.78
2022-08-20T02:18:10.520Z,94070.88
2022-08-20T02:20:38.915Z,94072.94
2022-08-20T02:23:07.720Z,94072.84
2022-08-20T02:25:37.200Z,94069.84
2022-08-20T02:28:08.202Z,94063.53
2022-08-20T02:30:39.176Z,94062.16
2022-08-20T02:33:09.760Z,94055.53
2022-08-20T02:35:37.917Z,94050.56
2022-08-20T02:38:04.998Z,94052.09
2022-08-20T02:40:32.094Z,94046.22
2022-08-20T02:43:00.330Z,94042.78
2022-08-20T02:45:28.754Z,94054.38
2022-08-20T02:47:57.109Z,94063.34
2022-08-20T02:50:25.991Z,94063.13
2022-08-20T02:52:52.884Z,94063.06
2022-08-20T02:55:28.214Z,94059.00
2022-08-20T02:57:59.057Z,94057.72
2022-08-20T03:00:28.574Z,94058.53
2022-08-20T03:02:55.494Z,94058.75
2022-08-20T03:05:22.344Z,94057.88
2022-08-20T03:07:56.387Z,94059.66
2022-08-20T03:10:26.141Z,94046.47
2022-08-20T03:12:53.050Z,94050.38
2022-08-20T03:15:20.368Z,94054.94
2022-08-20T03:17:48.324Z,94051.16
2022-08-20T03:20:15.269Z,94050.31
2022-08-20T03:22:42.480Z,94047.16
2022-08-20T03:25:10.891Z,94051.72
2022-08-20T03:27:37.783Z,94053.13
2022-08-20T03:30:08.475Z,94047.19
2022-08-20T03:32:35.729Z,94049.47
2022-08-20T03:35:02.544Z,94050.47
2022-08-20T03:37:34.873Z,94043.31
2022-08-20T03:40:03.530Z,94044.69
2022-08-20T03:42:31.185Z,94035.16
2022-08-20T03:44:58.974Z,94033.53
2022-08-20T03:47:27.023Z,94035.16
2022-08-20T03:49:59.046Z,94042.75
2022-08-20T03:52:28.558Z,94037.72
2022-08-20T03:54:56.161Z,94037.78
2022-08-20T03:57:23.469Z,94036.75
2022-08-20T03:59:55.132Z,94040.81
2022-08-20T04:02:25.648Z,94037.00
2022-08-20T04:04:52.363Z,94041.75
2022-08-20T04:07:27.449Z,94039.56
2022-08-20T04:09:57.636Z,94042.13
2022-08-20T04:12:25.192Z,94037.72
2022-08-20T04:14:54.313Z,94044.22
2022-08-20T04:17:21.054Z,94038.84
2022-08-20T04:19:49.265Z,94037.50
2022-08-20T04:22:15.942Z,94040.75
2022-08-20T04:24:43.653Z,94034.03
2022-08-20T04:27:10.913Z,94044.63
2022-08-20T04:29:37.711Z,94041.94
2022-08-20T04:32:06.083Z,94039.66
2022-08-20T04:34:34.169Z,94049.78
2022-08-20T04:37:00.882Z,94052.19
2022-08-20T04:39:27.546Z,94051.84
2022-08-20T04:41:55.441Z,94046.56
2022-08-20T04:44:22.746Z,94056.00
2022-08-20T04:46:49.496Z,94058.44
2022-08-20T04:49:16.191Z,94062.09
2022-08-20T04:51:42.920Z,94061.50
2022-08-20T04:54:09.616Z,94062.47
2022-08-20T04:56:39.643Z,94063.44
2022-08-20T04:59:07.420Z,94062.28
2022-08-20T05:01:37.827Z,94062.28
2022-08-20T05:04:04.603Z,94058.78
2022-08-20T05:06:31.890Z,94049.91
2022-08-20T05:09:00.511Z,94058.88
2022-08-20T05:11:33.669Z,94058.22
2022-08-20T05:14:05.497Z,94072.16
2022-08-20T05:16:37.638Z,94069.66
2022-08-20T05:19:04.528Z,94072.00
2022-08-20T05:21:31.181Z,94069.47
2022-08-20T05:23:57.796Z,94073.59
2022-08-20T05:26:26.427Z,94074.31
2022-08-20T05:28:58.637Z,94078.63
2022-08-20T05:31:31.924Z,94080.19
2022-08-20T05:34:12.133Z,94079.97
2022-08-20T05:36:41.300Z,94079.34
2022-08-20T05:39:10.037Z,94079.84
2022-08-20T05:41:38.373Z,94075.66
2022-08-20T05:44:09.862Z,94089.91
2022-08-20T05:46:40.853Z,94086.47
2022-08-20T05:49:09.164Z,94085.44
2022-08-20T05:51:36.976Z,94082.81
2022-08-20T05:54:05.324Z,94088.63
2022-08-20T05:56:32.512Z,94083.94
2022-08-20T05:59:04.413Z,94087.13
2022-08-20T06:01:32.366Z,94087.59
2022-08-20T06:04:17.619Z,94077.03
2022-08-20T06:06:47.114Z,94075.84
2022-08-20T06:09:31.820Z,94077.28
2022-08-20T06:12:05.912Z,94077.66
2022-08-20T06:14:33.369Z,94080.63
2022-08-20T06:17:17.630Z,94087.84
2022-08-20T06:19:46.091Z,94085.25
2022-08-20T06:22:18.526Z,94095.75
2022-08-20T06:24:51.569Z,94092.25
2022-08-20T06:27:18.358Z,94095.88
2022-08-20T06:29:45.780Z,94089.50
2022-08-20T06:32:12.586Z,94087.47
2022-08-20T06:34:50.936Z,94088.34
2022-08-20T06:37:27.413Z,94094.28
2022-08-20T06:40:03.520Z,94092.44
2022-08-20T06:42:30.520Z,94091.16
2022-08-20T06:44:59.521Z,94087.97
2022-08-20T06:47:26.258Z,94090.06
2022-08-20T06:49:52.961Z,94085.13
2022-08-20T06:52:19.651Z,94088.41
2022-08-20T06:54:56.703Z,94086.47
2022-08-20T06:57:23.384Z,94089.28
2022-08-20T06:59:54.072Z,94085.28
2022-08-20T07:02:21.209Z,94089.34
2022-08-20T07:04:56.230Z,94089.91
2022-08-20T07:07:22.912Z,94091.63
2022-08-20T07:09:49.637Z,94088.16
2022-08-20T07:12:16.345Z,94090.31
2022-08-20T07:14:43.040Z,94093.59
2022-08-20T07:17:12.267Z,94089.72
2022-08-20T07:19:39.182Z,94089.56
2022-08-20T07:22:06.737Z,94088.63
2022-08-20T07:24:34.963Z,94088.00
2022-08-20T07:27:04.792Z,94092.75
2022-08-20T07:29:51.476Z,94088.22
2022-08-20T07:32:39.615Z,94094.06
2022-08-20T07:35:11.234Z,94086.69
2022-08-20T07:37:43.496Z,94082.22
2022-08-20T07:40:21.279Z,94085.44
2022-08-20T07:42:50.736Z,94082.56
2022-08-20T07:45:18.794Z,94090.16
2022-08-20T07:47:48.088Z,94088.00
2022-08-20T07:50:19.092Z,94090.41
2022-08-20T07:52:46.564Z,94099.75
2022-08-20T07:55:16.394Z,94100.75
2022-08-20T07:57:45.652Z,94097.63
2022-08-20T08:00:13.704Z,94101.66
2022-08-20T08:02:40.488Z,94088.91
2022-08-20T08:05:07.761Z,94093.75
2022-08-20T08:07:35.520Z,94099.94
2022-08-20T08:10:07.363Z,94093.13
2022-08-20T08:12:40.944Z,94111.66
2022-08-20T08:15:12.584Z,94101.44
2022-08-20T08:17:39.292Z,94107.25
2022-08-20T08:20:08.460Z,94104.44
2022-08-20T08:22:35.176Z,94103.66
2022-08-20T08:25:02.721Z,94098.47
2022-08-20T08:27:33.272Z,94105.13
2022-08-20T08:30:01.128Z,94101.38
2022-08-20T08:32:28.555Z,94096.03
2022-08-20T08:34:55.282Z,94100.03
2022-08-20T08:37:21.983Z,94097.69
2022-08-20T08:39:49.104Z,94102.53
2022-08-20T08:42:25.952Z,94100.88
2022-08-20T08:44:54.489Z,94103.91
2022-08-20T08:47:35.962Z,94098.34
2022-08-20T08:50:05.646Z,94100.25
2022-08-20T08:52:36.985Z,94096.50
2022-08-20T08:55:07.014Z,94101.03
2022-08-20T08:57:34.269Z,94094.97
2022-08-20T09:00:15.618Z,94093.50
2022-08-20T09:03:00.060Z,94094.59
2022-08-20T09:05:37.325Z,94091.94
2022-08-20T09:08:16.685Z,94093.78
2022-08-20T09:10:44.973Z,94099.22
2022-08-20T09:13:12.373Z,94105.44
2022-08-20T09:15:39.154Z,94101.81
2022-08-20T09:18:05.825Z,94105.94
2022-08-20T09:20:32.582Z,94106.66
2022-08-20T09:22:59.287Z,94107.44
2022-08-20T09:25:26.088Z,94119.19
2022-08-20T09:27:52.843Z,94108.84
2022-08-20T09:30:19.795Z,94109.28
2022-08-20T09:32:47.212Z,94119.19
2022-08-20T09:35:13.861Z,94125.34
2022-08-20T09:37:40.587Z,94118.66
2022-08-20T09:40:08.889Z,94114.84
2022-08-20T09:42:41.403Z,94117.84
2022-08-20T09:45:11.069Z,94120.25
2022-08-20T09:47:43.851Z,94112.25
2022-08-20T09:50:21.964Z,94122.84
2022-08-20T09:52:53.143Z,94116.34
2022-08-20T09:55:40.686Z,94125.28
2022-08-20T09:58:31.015Z,94115.44
2022-08-20T10:00:58.800Z,94119.69
2022-08-20T10:03:25.492Z,94122.53
2022-08-20T10:05:52.217Z,94133.69
2022-08-20T10:08:18.905Z,94121.31
2022-08-20T10:10:45.581Z,94123.50
2022-08-20T10:13:13.251Z,94120.69
2022-08-20T10:15:42.460Z,94124.13
2022-08-20T10:18:09.495Z,94125.94
2022-08-20T10:20:39.294Z,94133.66
2022-08-20T10:23:06.145Z,94129.44
2022-08-20T10:25:32.952Z,94135.22
2022-08-20T10:27:59.692Z,94132.50
2022-08-20T10:30:26.638Z,94131.94
2022-08-20T10:32:53.342Z,94127.66
2022-08-20T10:35:20.212Z,94128.19
2022-08-20T10:37:46.907Z,94124.25
2022-08-20T10:40:15.831Z,94115.44
2022-08-20T10:42:45.828Z,94122.28
2022-08-20T10:45:15.274Z,94115.72
2022-08-20T10:47:43.160Z,94119.94
2022-08-20T10:50:13.633Z,94118.41
2022-08-20T10:52:40.527Z,94119.19
2022-08-20T10:55:07.981Z,94113.47
2022-08-20T10:57:34.789Z,94127.66
2022-08-20T11:00:01.913Z,94113.00
2022-08-20T11:02:29.942Z,94117.75
2022-08-20T11:04:56.910Z,94117.28
2022-08-20T11:07:55.565Z,94108.66
2022-08-20T11:10:26.207Z,94110.25
2022-08-20T11:12:52.945Z,94101.16
2022-08-20T11:15:19.621Z,94100.97
2022-08-20T11:17:46.420Z,94101.56
2022-08-20T11:20:15.849Z,94095.50
2022-08-20T11:22:42.566Z,94093.72
2022-08-20T11:25:10.126Z,94108.97
2022-08-20T11:27:39.632Z,94086.63
2022-08-20T11:30:11.121Z,94102.44
2022-08-20T11:32:37.973Z,94101.81
2022-08-20T11:35:19.192Z,94107.38
2022-08-20T11:37:53.973Z,94102.25
2022-08-20T11:40:21.378Z,94114.78
2022-08-20T11:43:10.948Z,94120.56
2022-08-20T11:45:37.430Z,94118.19
2022-08-20T11:48:05.572Z,94126.13
2022-08-20T11:50:32.631Z,94133.59
2022-08-20T11:53:01.205Z,94122.06
2022-08-20T11:55:30.352Z,94112.31
2022-08-20T11:58:00.416Z,94119.03
2022-08-20T12:00:31.720Z,94121.00
2022-08-20T12:03:05.107Z,94130.47
2022-08-20T12:05:33.153Z,94123.28
2022-08-20T12:08:04.087Z,94130.53
2022-08-20T12:10:31.457Z,94136.41
2022-08-20T12:12:58.248Z,94134.75
2022-08-20T12:15:26.807Z,94136.53
2022-08-20T12:17:54.823Z,94140.56
2022-08-20T12:20:23.586Z,94142.03
2022-08-20T12:22:50.842Z,94146.81
2022-08-20T12:25:17.783Z,94148.97
2022-08-20T12:27:46.241Z,94142.84
2022-08-20T12:30:20.453Z,94140.47
2022-08-20T12:32:47.645Z,94142.78
2022-08-20T12:35:16.097Z,94142.16
2022-08-20T12:37:43.910Z,94136.28
2022-08-20T12:40:14.780Z,94133.09
2022-08-20T12:42:41.722Z,94137.38
2022-08-20T12:45:09.212Z,94135.28
2022-08-20T12:47:39.525Z,94132.69
2022-08-20T12:50:10.071Z,94133.63
2022-08-20T12:52:37.327Z,94126.53
2022-08-20T12:55:06.748Z,94129.16
2022-08-20T12:57:36.631Z,94126.09
2022-08-20T13:00:34.373Z,94130.75
2022-08-20T13:03:03.646Z,94131.53
2022-08-20T13:05:31.706Z,94124.56
2022-08-20T13:07:58.725Z,94120.66
2022-08-20T13:10:33.381Z,94125.53
2022-08-20T13:13:04.211Z,94124.47
2022-08-20T13:15:32.279Z,94109.53
2022-08-20T13:18:01.537Z,94112.63
2022-08-20T13:20:34.126Z,94119.16
2022-08-20T13:23:06.274Z,94105.50
2022-08-20T13:25:33.794Z,94109.91
2022-08-20T13:28:04.481Z,94104.34
2022-08-20T13:30:32.712Z,94101.41
2022-08-20T13:32:59.556Z,94094.34
2022-08-20T13:35:26.687Z,94093.94
2022-08-20T13:37:53.538Z,94092.63
2022-08-20T13:40:20.681Z,94093.31
2022-08-20T13:42:47.571Z,94096.50
2022-08-20T13:45:14.490Z,94098.72
2022-08-20T13:47:42.580Z,94101.56
2022-08-20T13:50:20.492Z,94093.63
2022-08-20T13:52:47.589Z,94095.84
2022-08-20T13:55:18.827Z,94096.66
2022-08-20T13:57:46.183Z,94103.78
2022-08-20T14:00:17.236Z,94108.19
2022-08-20T14:02:44.665Z,94119.31
2022-08-20T14:05:12.087Z,94123.94
2022-08-20T14:07:44.598Z,94122.09
2022-08-20T14:10:16.877Z,94126.66
2022-08-20T14:12:43.953Z,94124.25
2022-08-20T14:15:11.773Z,94115.63
2022-08-20T14:17:42.049Z,94115.47
2022-08-20T14:20:14.072Z,94118.06
2022-08-20T14:22:42.669Z,94122.50
2022-08-20T14:25:11.862Z,94121.59
2022-08-20T14:27:38.954Z,94117.91
2022-08-20T14:30:09.211Z,94120.53
2022-08-20T14:32:35.961Z,94119.69
2022-08-20T14:35:02.949Z,94115.19
2022-08-20T14:37:33.015Z,94109.94
2022-08-20T14:40:01.803Z,94116.38
2022-08-20T14:42:29.738Z,94106.13
2022-08-20T14:44:57.374Z,94104.63
2022-08-20T14:47:30.169Z,94105.94
2022-08-20T14:50:04.606Z,94097.25
2022-08-20T14:52:32.948Z,94101.53
2022-08-20T14:54:59.661Z,94098.59
2022-08-20T14:57:26.343Z,94102.72
2022-08-20T14:59:53.652Z,94099.81
2022-08-20T15:02:20.499Z,94095.72
2022-08-20T15:04:54.080Z,94099.59
2022-08-20T15:07:27.330Z,94098.94
2022-08-20T15:09:55.316Z,94094.19
2022-08-20T15:12:22.879Z,94095.09
2022-08-20T15:14:50.480Z,94099.66
2022-08-20T15:17:22.981Z,94104.97
2022-08-20T15:19:49.988Z,94102.47
2022-08-20T15:22:18.066Z,94099.28
2022-08-20T15:24:44.919Z,94099.56
2022-08-20T15:27:23.040Z,94099.94
2022-08-20T15:29:51.409Z,94103.03
2022-08-20T15:32:18.903Z,94106.03
2022-08-20T15:34:46.817Z,94108.69
2022-08-20T15:37:17.864Z,94103.97
2022-08-20T15:39:45.101Z,94104.31
2022-08-20T15:42:13.092Z,94104.09
2022-08-20T15:44:40.789Z,94106.19
2022-08-20T15:47:16.728Z,94100.81
2022-08-20T15:49:44.614Z,94095.72
2022-08-20T15:52:11.868Z,94097.50
2022-08-20T15:54:39.467Z,94087.78
2022-08-20T15:57:06.229Z,94094.41
2022-08-20T16:00:00.261Z,94103.31
2022-08-20T16:03:11.780Z,94106.56
2022-08-20T16:05:56.195Z,94112.06
2022-08-20T16:08:58.221Z,94112.94
2022-08-20T16:11:44.448Z,94109.69
2022-08-20T16:14:16.112Z,94115.09
2022-08-20T16:16:56.633Z,94117.69
2022-08-20T16:19:34.958Z,94117.38
2022-08-20T16:22:04.715Z,94122.31
2022-08-20T16:24:32.362Z,94107.59
2022-08-20T16:27:17.221Z,94114.69
2022-08-20T16:29:58.968Z,94114.00
2022-08-20T16:32:25.751Z,94121.13
2022-08-20T16:35:29.548Z,94125.31
2022-08-20T16:38:20.995Z,94117.63
2022-08-20T16:41:02.097Z,94116.94
2022-08-20T16:43:36.791Z,94114.44
2022-08-20T16:46:06.393Z,94116.53
2022-08-20T16:48:41.432Z,94104.56
2022-08-20T16:51:17.823Z,94111.09
2022-08-20T16:53:44.800Z,94123.47
2022-08-20T16:56:11.859Z,94119.19
2022-08-20T16:58:39.061Z,94119.50
2022-08-20T17:01:11.994Z,94121.06
2022-08-20T17:03:47.742Z,94111.09
2022-08-20T17:06:25.761Z,94110.59
2022-08-20T17:08:53.079Z,94116.47
2022-08-20T17:11:33.134Z,94110.44
2022-08-20T17:14:13.473Z,94107.31
2022-08-20T17:16:45.590Z,94105.78
2022-08-20T17:19:33.813Z,94114.06
2022-08-20T17:22:14.683Z,94110.53
2022-08-20T17:24:41.698Z,94110.88
2022-08-20T17:27:15.037Z,94108.75
2022-08-20T17:30:04.861Z,94120.22
2022-08-20T17:32:32.102Z,94116.38
2022-08-20T17:35:02.138Z,94115.31
2022-08-20T17:37:40.819Z,94118.84
2022-08-20T17:40:17.292Z,94123.63
2022-08-20T17:42:47.209Z,94121.47
2022-08-20T17:45:24.390Z,94118.69
2022-08-20T17:47:52.813Z,94113.88
2022-08-20T17:50:23.624Z,94117.09
2022-08-20T17:52:53.284Z,94118.59
2022-08-20T17:55:20.874Z,94122.09
2022-08-20T17:57:55.967Z,94135.34
2022-08-20T18:00:26.192Z,94123.03
2022-08-20T18:02:57.613Z,94126.56
2022-08-20T18:05:24.912Z,94125.03
2022-08-20T18:08:16.957Z,94131.16
2022-08-20T18:11:03.725Z,94134.19
2022-08-20T18:13:33.659Z,94131.84
2022-08-20T18:16:02.159Z,94140.59
2022-08-20T18:19:10.511Z,94142.59
2022-08-20T18:22:06.356Z,94140.03
2022-08-20T18:25:08.593Z,94140.25
2022-08-20T18:27:46.452Z,94146.59
2022-08-20T18:30:22.203Z,94147.28
2022-08-20T18:32:59.451Z,94152.66
2022-08-20T18:35:34.330Z,94161.81
2022-08-20T18:38:27.709Z,94159.13
2022-08-20T18:41:06.215Z,94158.06
2022-08-20T18:43:32.989Z,94165.47
2022-08-20T18:46:23.495Z,94158.41
2022-08-20T18:48:57.036Z,94160.63
2022-08-20T18:51:50.382Z,94166.72
2022-08-20T18:54:25.193Z,94175.13
2022-08-20T18:57:24.938Z,94174.00
2022-08-20T19:00:01.876Z,94176.22
2022-08-20T19:02:33.465Z,94177.75
2022-08-20T19:05:04.945Z,94178.97
2022-08-20T19:07:48.445Z,94175.88
2022-08-20T19:10:52.616Z,94173.56
2022-08-20T19:13:40.587Z,94181.50
2022-08-20T19:16:18.263Z,94185.50
2022-08-20T19:18:52.843Z,94187.03
2022-08-20T19:21:29.735Z,94186.28
2022-08-20T19:24:01.246Z,94187.59
2022-08-20T19:26:31.464Z,94187.94
2022-08-20T19:29:02.231Z,94193.97
2022-08-20T19:31:33.104Z,94190.53
2022-08-20T19:34:20.184Z,94201.38
2022-08-20T19:37:09.178Z,94194.31
2022-08-20T19:39:50.911Z,94195.03
2022-08-20T19:42:23.011Z,94197.34
2022-08-20T19:45:01.321Z,94203.66
2022-08-20T19:47:34.008Z,94196.66
2022-08-20T19:50:11.234Z,94199.41
2022-08-20T19:52:56.286Z,94189.78
2022-08-20T19:55:28.046Z,94193.31
2022-08-20T19:58:00.710Z,94194.13
2022-08-20T20:00:30.654Z,94196.22
2022-08-20T20:03:08.703Z,94201.50
2022-08-20T20:05:35.523Z,94206.84
2022-08-20T20:08:04.057Z,94203.63
2022-08-20T20:10:34.980Z,94203.84
2022-08-20T20:13:10.296Z,94199.47
2022-08-20T20:15:38.058Z,94197.13
2022-08-20T20:18:06.095Z,94199.97
2022-08-20T20:20:38.482Z,94204.31
2022-08-20T20:23:45.555Z,94204.56
2022-08-20T20:26:17.557Z,94202.41
2022-08-20T20:28:49.604Z,94203.03
2022-08-20T20:31:29.799Z,94203.63
2022-08-20T20:34:04.417Z,94205.88
2022-08-20T20:36:40.828Z,94205.88
2022-08-20T20:39:30.175Z,94203.13
2022-08-20T20:41:59.893Z,94201.97
2022-08-20T20:44:36.906Z,94198.44
2022-08-20T20:47:08.229Z,94205.53
2022-08-20T20:50:25.231Z,94202.09
2022-08-20T20:52:54.630Z,94197.41
2022-08-20T20:55:22.861Z,94194.13
2022-08-20T20:57:50.972Z,94184.81
2022-08-20T21:00:19.917Z,94178.34
2022-08-20T21:02:47.035Z,94186.69
2022-08-20T21:05:16.296Z,94188.84
2022-08-20T21:07:57.108Z,94176.94
2022-08-20T21:10:27.809Z,94175.75
2022-08-20T21:12:54.901Z,94184.09
2022-08-20T21:15:23.690Z,94182.28
2022-08-20T21:17:51.364Z,94192.69
2022-08-20T21:20:19.200Z,94188.13
2022-08-20T21:22:45.877Z,94190.69
2022-08-20T21:25:13.365Z,94190.53
2022-08-20T21:27:44.394Z,94184.34
2022-08-20T21:30:11.761Z,94196.50
2022-08-20T21:32:38.412Z,94194.16
2022-08-20T21:35:05.623Z,94199.63
2022-08-20T21:37:32.518Z,94194.88
2022-08-20T21:39:59.277Z,94201.19
2022-08-20T21:42:29.624Z,94192.41
2022-08-20T21:44:57.828Z,94199.59
2022-08-20T21:47:25.074Z,94203.06
2022-08-20T21:49:52.478Z,94202.31
2022-08-20T21:52:19.210Z,94203.59
2022-08-20T21:54:45.947Z,94207.03
2022-08-20T21:57:33.221Z,94201.53
2022-08-20T22:00:02.256Z,94195.94
2022-08-20T22:02:30.008Z,94188.09
2022-08-20T22:04:56.682Z,94188.16
2022-08-20T22:07:23.513Z,94192.41
2022-08-20T22:09:50.136Z,94189.44
2022-08-20T22:12:22.664Z,94194.16
2022-08-20T22:14:49.533Z,94196.38
2022-08-20T22:17:16.522Z,94186.34
2022-08-20T22:19:43.425Z,94192.34
2022-08-20T22:22:11.667Z,94194.09
2022-08-20T22:24:39.049Z,94192.41
2022-08-20T22:27:06.077Z,94189.84
2022-08-20T22:29:32.846Z,94196.91
2022-08-20T22:32:00.379Z,94192.13
2022-08-20T22:34:31.255Z,94186.28
2022-08-20T22:36:59.503Z,94179.69
2022-08-20T22:39:26.706Z,94183.16
2022-08-20T22:41:53.515Z,94178.56
2022-08-20T22:44:20.632Z,94183.25
2022-08-20T22:46:51.541Z,94181.03
2022-08-20T22:49:23.776Z,94189.22
2022-08-20T22:51:50.655Z,94181.84
2022-08-20T22:54:22.220Z,94186.41
2022-08-20T22:56:49.712Z,94182.81
2022-08-20T22:59:18.164Z,94180.47
2022-08-20T23:01:46.300Z,94182.63
2022-08-20T23:04:22.291Z,94188.84
2022-08-20T23:06:49.349Z,94188.84
2022-08-20T23:09:21.114Z,94187.53
2022-08-20T23:11:48.395Z,94185.44
2022-08-20T23:14:15.456Z,94184.63
2022-08-20T23:16:45.164Z,94185.13
2022-08-20T23:19:21.388Z,94178.38
2022-08-20T23:21:52.462Z,94181.25
2022-08-20T23:24:19.771Z,94184.06
2022-08-20T23:26:52.766Z,94183.38
2022-08-20T23:29:22.615Z,94183.84
2022-08-20T23:31:54.710Z,94179.31
2022-08-20T23:34:21.565Z,94179.56
2022-08-20T23:36:48.544Z,94174.34
2022-08-20T23:39:15.393Z,94172.94
2022-08-20T23:41:47.580Z,94167.06
2022-08-20T23:44:25.854Z,94174.97
2022-08-20T23:47:00.608Z,94173.13
2022-08-20T23:49:28.618Z,94167.78
2022-08-20T23:51:55.796Z,94167.97
2022-08-20T23:54:22.570Z,94161.06
2022-08-20T23:56:49.564Z,94165.22
2022-08-20T23:59:16.491Z,94160.75
